Time;durP1;ratioP1;P1;durP2;ratioP2;P2;SDS_P1;SDS_P2;PMS_P1;PMS_P2;Temp;Humidity;BMP_temperature;BMP_pressure;BME280_temperature;BME280_humidity;BME280_pressure;Samples;Min_cycle;Max_cycle;Signal;HPM_P1;HPM_P2
2022/08/20 00:00:28;;;;;;;17.08;15.30;;;22.00;99.90;;;;;;5004954;28;20572;-70
2022/08/20 00:02:59;;;;;;;15.43;13.77;;;22.00;99.90;;;;;;5007682;28;20295;-70
2022/08/20 00:05:29;;;;;;;17.45;15.27;;;22.00;99.90;;;;;;5003521;28;20221;-72
2022/08/20 00:07:54;;;;;;;17.35;15.45;;;22.00;99.90;;;;;;5005735;28;20288;-69
2022/08/20 00:10:21;;;;;;;16.80;15.10;;;22.10;99.90;;;;;;5001891;28;20264;-69
2022/08/20 00:12:49;;;;;;;16.67;14.98;;;22.10;99.90;;;;;;5028079;28;20267;-69
2022/08/20 00:15:19;;;;;;;17.10;15.35;;;22.10;99.90;;;;;;5001327;28;20255;-69
2022/08/20 00:17:44;;;;;;;17.40;15.20;;;22.10;99.90;;;;;;5004747;28;20201;-70
2022/08/20 00:20:12;;;;;;;16.90;15.10;;;22.00;99.90;;;;;;5005303;28;20207;-71
2022/08/20 00:22:38;;;;;;;18.23;15.52;;;22.00;99.90;;;;;;5006198;28;20229;-73
2022/08/20 00:25:05;;;;;;;17.30;15.50;;;22.00;99.90;;;;;;5008319;28;20251;-69
2022/08/20 00:27:31;;;;;;;17.27;15.13;;;21.90;99.90;;;;;;5000909;28;20237;-71
2022/08/20 00:29:56;;;;;;;17.67;15.88;;;21.90;99.90;;;;;;5005853;28;20212;-72
2022/08/20 00:32:22;;;;;;;17.08;15.27;;;21.90;99.90;;;;;;4999805;28;20217;-69
2022/08/20 00:34:48;;;;;;;18.35;16.38;;;21.90;99.90;;;;;;5004217;28;20197;-70
2022/08/20 00:37:14;;;;;;;16.90;15.15;;;21.90;99.90;;;;;;5003658;28;20177;-71
2022/08/20 00:39:39;;;;;;;19.23;15.57;;;21.90;99.90;;;;;;5003286;28;20177;-71
2022/08/20 00:42:07;;;;;;;17.83;15.75;;;21.90;99.90;;;;;;5006605;28;20232;-69
2022/08/20 00:44:32;;;;;;;18.98;15.70;;;21.90;99.90;;;;;;5008874;28;20686;-70
2022/08/20 00:46:58;;;;;;;18.70;16.30;;;21.90;99.90;;;;;;5010464;28;20236;-71
2022/08/20 00:49:28;;;;;;;16.40;14.73;;;21.90;99.90;;;;;;5010516;28;20212;-71
2022/08/20 00:52:00;;;;;;;17.60;15.10;;;21.90;99.90;;;;;;5004600;28;20667;-73
2022/08/20 00:54:35;;;;;;;17.40;15.52;;;21.80;99.90;;;;;;5007254;28;20209;-75
2022/08/20 00:57:07;;;;;;;18.35;14.40;;;21.80;99.90;;;;;;5002595;28;20356;-70
2022/08/20 00:59:36;;;;;;;17.88;16.08;;;21.80;99.90;;;;;;5007671;28;20212;-72
2022/08/20 01:02:06;;;;;;;17.08;14.43;;;21.90;99.90;;;;;;5002396;28;20217;-70
2022/08/20 01:04:34;;;;;;;16.23;13.43;;;21.90;99.90;;;;;;5005467;28;20355;-70
2022/08/20 01:07:04;;;;;;;15.10;13.52;;;21.90;99.90;;;;;;5007967;28;20235;-71
2022/08/20 01:09:29;;;;;;;14.95;13.45;;;21.90;99.90;;;;;;5001130;28;20232;-73
2022/08/20 01:11:55;;;;;;;15.48;13.68;;;21.90;99.90;;;;;;4996918;28;20694;-70
2022/08/20 01:14:30;;;;;;;13.68;12.23;;;21.90;99.90;;;;;;5008398;28;20207;-73
2022/08/20 01:17:01;;;;;;;16.02;13.32;;;21.90;99.90;;;;;;5004008;28;20204;-73
2022/08/20 01:19:32;;;;;;;14.13;12.68;;;21.90;99.90;;;;;;5002729;28;20213;-70
2022/08/20 01:21:59;;;;;;;15.38;12.98;;;21.90;99.90;;;;;;5004456;28;20208;-70
2022/08/20 01:24:38;;;;;;;14.90;12.73;;;21.90;99.90;;;;;;5005654;28;20209;-70
2022/08/20 01:27:05;;;;;;;20.63;16.38;;;21.90;99.90;;;;;;5002862;28;20282;-70
2022/08/20 01:29:38;;;;;;;15.13;13.63;;;21.90;99.90;;;;;;5006765;28;20212;-71
2022/08/20 01:32:05;;;;;;;14.63;13.23;;;21.90;99.90;;;;;;5005552;28;20213;-70
2022/08/20 01:34:30;;;;;;;15.77;13.60;;;21.90;99.90;;;;;;5005910;28;20228;-70
2022/08/20 01:36:57;;;;;;;14.55;12.93;;;21.90;99.90;;;;;;5004340;28;20224;-70
2022/08/20 01:39:35;;;;;;;14.25;12.75;;;21.70;99.90;;;;;;5007174;28;20205;-70
2022/08/20 01:42:18;;;;;;;14.45;12.90;;;21.70;99.90;;;;;;5006832;28;20205;-70
2022/08/20 01:44:45;;;;;;;14.13;12.65;;;21.50;99.90;;;;;;5001018;28;20570;-71
2022/08/20 01:47:31;;;;;;;16.63;14.55;;;21.50;99.90;;;;;;5009745;28;20207;-69
2022/08/20 01:50:06;;;;;;;14.23;12.07;;;21.40;99.90;;;;;;5005807;28;20570;-73
2022/08/20 01:52:35;;;;;;;13.88;12.48;;;21.40;99.90;;;;;;5002536;28;20227;-71
2022/08/20 01:55:02;;;;;;;13.95;12.50;;;21.40;99.90;;;;;;5005901;28;20630;-69
2022/08/20 01:57:28;;;;;;;14.48;12.98;;;21.40;99.90;;;;;;5009636;28;20231;-68
2022/08/20 01:59:54;;;;;;;15.10;13.70;;;21.40;99.90;;;;;;5003515;28;20749;-68
2022/08/20 02:02:20;;;;;;;14.82;13.43;;;21.40;99.90;;;;;;5009434;28;20227;-69
2022/08/20 02:04:46;;;;;;;15.43;13.82;;;21.40;99.90;;;;;;5005311;28;20754;-68
2022/08/20 02:07:15;;;;;;;13.55;12.25;;;21.40;99.90;;;;;;5009698;28;20203;-69
2022/08/20 02:09:41;;;;;;;13.77;12.50;;;21.40;99.90;;;;;;5002600;28;20273;-68
2022/08/20 02:12:09;;;;;;;14.38;12.90;;;21.40;99.90;;;;;;5003332;28;20220;-69
2022/08/20 02:14:52;;;;;;;14.80;13.30;;;21.40;99.90;;;;;;5004212;28;20201;-69
2022/08/20 02:17:21;;;;;;;15.35;13.70;;;21.40;99.90;;;;;;5004611;28;20208;-69
2022/08/20 02:19:55;;;;;;;16.58;14.43;;;21.40;99.90;;;;;;5004453;28;20205;-69
2022/08/20 02:22:35;;;;;;;16.50;14.80;;;21.40;99.90;;;;;;4998970;28;20188;-72
2022/08/20 02:25:01;;;;;;;17.85;15.95;;;21.40;99.90;;;;;;4986401;28;20189;-70
2022/08/20 02:27:26;;;;;;;19.10;17.08;;;21.40;99.90;;;;;;4979559;28;20285;-70
2022/08/20 02:29:52;;;;;;;17.67;15.80;;;21.40;99.90;;;;;;4994070;28;20212;-68
2022/08/20 02:32:19;;;;;;;19.10;17.10;;;21.30;99.90;;;;;;5002192;28;20213;-69
2022/08/20 02:34:45;;;;;;;18.90;16.90;;;21.40;99.90;;;;;;5003553;28;20619;-69
2022/08/20 02:37:13;;;;;;;17.75;15.52;;;21.30;99.90;;;;;;5009298;28;20176;-69
2022/08/20 02:39:39;;;;;;;19.48;17.40;;;21.30;99.90;;;;;;5005710;28;20170;-69
2022/08/20 02:42:05;;;;;;;21.15;16.73;;;21.40;99.90;;;;;;5001797;28;20209;-69
2022/08/20 02:44:31;;;;;;;18.88;16.65;;;21.40;99.90;;;;;;5000147;28;20690;-69
2022/08/20 02:46:57;;;;;;;20.45;18.25;;;21.40;99.90;;;;;;5006782;28;20576;-69
2022/08/20 02:49:22;;;;;;;20.63;18.10;;;21.40;99.90;;;;;;5002653;28;20185;-69
2022/08/20 02:51:48;;;;;;;18.63;16.63;;;21.30;99.90;;;;;;5002084;28;20502;-71
2022/08/20 02:54:14;;;;;;;22.50;19.55;;;21.30;99.90;;;;;;5005012;28;20231;-69
2022/08/20 02:56:40;;;;;;;21.35;19.00;;;21.40;99.90;;;;;;5002490;28;20698;-69
2022/08/20 02:59:06;;;;;;;19.50;17.48;;;21.40;99.90;;;;;;5001242;28;20534;-69
2022/08/20 03:01:32;;;;;;;20.55;18.10;;;21.40;99.90;;;;;;5006998;28;20209;-69
2022/08/20 03:03:58;;;;;;;22.40;18.92;;;21.40;99.90;;;;;;5003930;28;20686;-69
2022/08/20 03:06:26;;;;;;;23.27;18.42;;;21.40;99.90;;;;;;5010468;28;20884;-69
2022/08/20 03:08:52;;;;;;;20.80;18.35;;;21.40;99.90;;;;;;5007101;28;20224;-68
2022/08/20 03:11:19;;;;;;;21.48;19.17;;;21.40;99.90;;;;;;5009527;28;20236;-70
2022/08/20 03:13:46;;;;;;;20.98;18.70;;;21.40;99.90;;;;;;5012776;23;20664;-68
2022/08/20 03:16:11;;;;;;;23.30;20.40;;;21.40;99.90;;;;;;5003897;28;20602;-68
2022/08/20 03:18:41;;;;;;;23.90;21.05;;;21.40;99.90;;;;;;5004284;28;20174;-68
2022/08/20 03:21:07;;;;;;;24.08;20.90;;;21.30;99.90;;;;;;5002265;28;20665;-68
2022/08/20 03:23:34;;;;;;;27.40;22.00;;;21.30;99.90;;;;;;4998069;28;20698;-67
2022/08/20 03:26:02;;;;;;;28.60;22.65;;;21.40;99.90;;;;;;5004808;28;20220;-68
2022/08/20 03:28:28;;;;;;;29.13;22.48;;;21.30;99.90;;;;;;5004704;28;20584;-68
2022/08/20 03:30:55;;;;;;;26.85;22.52;;;21.30;99.90;;;;;;5002665;28;20169;-69
2022/08/20 03:33:22;;;;;;;27.88;23.00;;;21.30;99.90;;;;;;5002395;28;20263;-69
2022/08/20 03:35:48;;;;;;;32.55;23.48;;;21.30;99.90;;;;;;5004068;28;20216;-68
2022/08/20 03:38:17;;;;;;;29.98;24.17;;;21.30;99.90;;;;;;5001425;28;20205;-69
2022/08/20 03:40:44;;;;;;;30.58;23.95;;;21.30;99.90;;;;;;5002113;28;20197;-68
2022/08/20 03:43:10;;;;;;;32.17;25.70;;;21.30;99.90;;;;;;5002196;28;20275;-69
2022/08/20 03:45:38;;;;;;;29.88;24.50;;;21.30;99.90;;;;;;5001411;28;20205;-68
2022/08/20 03:48:06;;;;;;;30.83;25.35;;;21.30;99.90;;;;;;5004428;28;20205;-68
2022/08/20 03:50:33;;;;;;;32.90;26.85;;;21.20;99.90;;;;;;5001200;28;20221;-68
2022/08/20 03:53:00;;;;;;;29.05;24.20;;;21.20;99.90;;;;;;5002181;28;20316;-69
2022/08/20 03:55:28;;;;;;;27.67;22.85;;;21.30;99.90;;;;;;5000769;28;20233;-69
2022/08/20 03:57:58;;;;;;;32.88;25.48;;;21.30;99.90;;;;;;5003840;28;20185;-69
2022/08/20 04:00:30;;;;;;;32.17;23.95;;;21.30;99.90;;;;;;5000916;28;20212;-69
2022/08/20 04:02:56;;;;;;;28.27;24.90;;;21.30;99.90;;;;;;5014863;28;20256;-69
2022/08/20 04:05:23;;;;;;;29.70;23.73;;;21.30;99.90;;;;;;5002525;28;20588;-69
2022/08/20 04:07:50;;;;;;;32.10;24.27;;;21.30;99.90;;;;;;5003003;28;20205;-69
2022/08/20 04:10:16;;;;;;;30.70;25.95;;;21.30;99.90;;;;;;4996732;28;20187;-69
2022/08/20 04:12:42;;;;;;;28.05;22.58;;;21.20;99.90;;;;;;5000790;28;20619;-69
2022/08/20 04:15:14;;;;;;;29.08;24.33;;;21.20;99.90;;;;;;5002101;28;20212;-68
2022/08/20 04:17:42;;;;;;;28.42;24.45;;;21.30;99.90;;;;;;5002388;28;20202;-69
2022/08/20 04:20:10;;;;;;;30.17;25.15;;;21.30;99.90;;;;;;5000732;28;20205;-68
2022/08/20 04:22:36;;;;;;;30.13;24.73;;;21.30;99.90;;;;;;4998119;28;20979;-69
2022/08/20 04:25:03;;;;;;;31.23;24.42;;;21.30;99.90;;;;;;4999127;28;20208;-67
2022/08/20 04:27:31;;;;;;;28.75;24.02;;;21.30;99.90;;;;;;5000431;28;20205;-68
2022/08/20 04:30:02;;;;;;;30.50;25.17;;;21.30;99.90;;;;;;4999163;28;20296;-68
2022/08/20 04:32:28;;;;;;;30.08;24.02;;;21.40;99.90;;;;;;5000878;28;20685;-68
2022/08/20 04:34:54;;;;;;;30.88;24.38;;;21.30;99.90;;;;;;5003783;28;20232;-68
2022/08/20 04:37:21;;;;;;;28.65;24.60;;;21.40;99.90;;;;;;5000452;28;20177;-68
2022/08/20 04:40:52;;;;;;;31.58;24.90;;;21.40;99.90;;;;;;4998584;28;20662;-68
2022/08/20 04:42:37;;;;;;;28.35;23.48;;;21.40;99.90;;;;;;4997186;28;20214;-69
2022/08/20 04:45:05;;;;;;;30.77;24.85;;;21.40;99.90;;;;;;5000241;28;20237;-68
2022/08/20 04:47:34;;;;;;;27.58;23.23;;;21.40;99.90;;;;;;5011189;28;20205;-69
2022/08/20 04:49:59;;;;;;;34.17;24.13;;;21.30;99.90;;;;;;5010877;28;20209;-69
2022/08/20 04:52:29;;;;;;;31.77;25.77;;;21.40;99.90;;;;;;5004167;28;20625;-69
2022/08/20 04:54:57;;;;;;;29.98;24.25;;;21.40;99.90;;;;;;5001160;28;20820;-68
2022/08/20 04:57:24;;;;;;;29.17;24.58;;;21.40;99.90;;;;;;5001885;28;20290;-68
2022/08/20 04:59:51;;;;;;;30.48;25.55;;;21.40;99.90;;;;;;5001435;28;20216;-68
2022/08/20 05:02:17;;;;;;;27.52;22.55;;;21.40;99.90;;;;;;5000346;28;20210;-69
2022/08/20 05:04:44;;;;;;;28.55;23.88;;;21.40;99.90;;;;;;4999688;28;20205;-69
2022/08/20 05:07:17;;;;;;;31.70;24.40;;;21.40;99.90;;;;;;5001387;28;20180;-68
2022/08/20 05:09:44;;;;;;;28.60;23.98;;;21.50;99.90;;;;;;5002335;28;20181;-68
2022/08/20 05:12:09;;;;;;;27.95;24.23;;;21.50;99.90;;;;;;4996672;28;20288;-68
2022/08/20 05:14:35;;;;;;;29.98;24.55;;;21.50;99.90;;;;;;5003024;28;20299;-68
2022/08/20 05:17:05;;;;;;;26.27;23.02;;;21.50;99.90;;;;;;5003212;28;20685;-69
2022/08/20 05:19:33;;;;;;;28.40;24.23;;;21.50;99.90;;;;;;4999238;28;20685;-68
2022/08/20 05:21:59;;;;;;;28.52;22.77;;;21.50;99.90;;;;;;5002514;28;20244;-69
2022/08/20 05:24:25;;;;;;;28.55;23.70;;;21.50;99.90;;;;;;5000392;28;20210;-68
2022/08/20 05:26:54;;;;;;;28.45;23.65;;;21.50;99.90;;;;;;5002243;28;20216;-68
2022/08/20 05:29:21;;;;;;;27.45;22.30;;;21.60;99.90;;;;;;4994446;28;20223;-69
2022/08/20 05:31:47;;;;;;;32.00;24.30;;;21.50;99.90;;;;;;4998488;28;20206;-68
2022/08/20 05:34:12;;;;;;;30.63;24.25;;;21.50;99.90;;;;;;5001586;28;20197;-68
2022/08/20 05:36:41;;;;;;;27.90;24.42;;;21.50;99.90;;;;;;4999628;28;20182;-68
2022/08/20 05:39:07;;;;;;;26.88;23.25;;;21.40;99.90;;;;;;5002587;28;20220;-69
2022/08/20 05:41:33;;;;;;;29.02;22.80;;;21.50;99.90;;;;;;4999060;28;20208;-68
2022/08/20 05:44:00;;;;;;;27.65;23.33;;;21.50;99.90;;;;;;4999158;28;20583;-68
2022/08/20 05:46:26;;;;;;;26.42;23.63;;;21.50;99.90;;;;;;5000063;28;20214;-69
2022/08/20 05:48:51;;;;;;;25.60;22.73;;;21.50;99.90;;;;;;5001544;28;20188;-67
2022/08/20 05:51:17;;;;;;;27.55;22.75;;;21.60;99.90;;;;;;5000511;28;20214;-69
2022/08/20 05:53:42;;;;;;;28.92;23.15;;;21.60;99.90;;;;;;4998989;28;20264;-69
2022/08/20 05:56:10;;;;;;;27.35;23.60;;;21.60;99.90;;;;;;5002488;28;20259;-69
2022/08/20 05:58:35;;;;;;;26.40;22.98;;;21.60;99.90;;;;;;4997811;28;20682;-68
2022/08/20 06:01:01;;;;;;;26.88;22.30;;;21.60;99.90;;;;;;5002615;28;20184;-68
2022/08/20 06:06:11;;;;;;;26.77;22.00;;;21.70;99.90;;;;;;4996753;28;20283;-68
2022/08/20 06:08:37;;;;;;;28.58;23.35;;;21.70;99.90;;;;;;4999101;28;20683;-68
2022/08/20 06:11:03;;;;;;;27.27;22.63;;;21.60;99.90;;;;;;4997563;28;20296;-68
2022/08/20 06:13:29;;;;;;;27.77;23.08;;;21.60;99.90;;;;;;4995587;28;20209;-69
2022/08/20 06:15:56;;;;;;;29.63;24.13;;;21.70;99.90;;;;;;5000860;28;20177;-69
2022/08/20 06:18:22;;;;;;;28.70;23.77;;;21.70;99.90;;;;;;4998636;28;20293;-69
2022/08/20 06:20:49;;;;;;;29.45;23.35;;;21.70;99.90;;;;;;4998155;28;20284;-69
2022/08/20 06:23:15;;;;;;;27.23;23.02;;;21.60;99.90;;;;;;5001893;28;20209;-69
2022/08/20 06:25:41;;;;;;;24.48;21.73;;;21.70;99.90;;;;;;5000577;28;20221;-68
2022/08/20 06:28:07;;;;;;;29.95;24.55;;;21.70;99.90;;;;;;4998978;28;20180;-68
2022/08/20 06:30:34;;;;;;;26.30;22.92;;;21.80;99.90;;;;;;5000158;28;20692;-69
2022/08/20 06:32:59;;;;;;;27.25;23.25;;;21.70;99.90;;;;;;5002328;28;20208;-68
2022/08/20 06:35:25;;;;;;;27.20;22.52;;;21.70;99.90;;;;;;4998652;28;20210;-69
2022/08/20 06:37:52;;;;;;;29.45;23.67;;;21.80;99.90;;;;;;5001094;28;20599;-69
2022/08/20 06:40:23;;;;;;;28.33;23.38;;;21.90;99.90;;;;;;5003821;28;20319;-69
2022/08/20 06:42:50;;;;;;;27.65;23.60;;;21.90;99.90;;;;;;5003499;28;20173;-69
2022/08/20 06:45:20;;;;;;;28.90;24.02;;;21.90;99.90;;;;;;5002795;28;20208;-70
2022/08/20 06:47:46;;;;;;;30.10;24.77;;;22.00;99.90;;;;;;4999858;28;20205;-70
2022/08/20 06:50:30;;;;;;;31.90;25.42;;;22.00;99.90;;;;;;5003915;28;20236;-69
2022/08/20 06:52:57;;;;;;;28.60;24.15;;;21.90;99.90;;;;;;4988752;28;20296;-69
2022/08/20 06:55:23;;;;;;;29.85;24.17;;;21.90;99.90;;;;;;5005437;28;20708;-69
2022/08/20 06:58:00;;;;;;;32.42;25.20;;;21.90;99.90;;;;;;5005452;28;20209;-69
2022/08/20 07:00:28;;;;;;;29.73;24.20;;;21.90;99.90;;;;;;5003516;28;20209;-69
2022/08/20 07:02:53;;;;;;;28.98;24.83;;;21.90;99.90;;;;;;5001230;28;20224;-68
2022/08/20 07:05:19;;;;;;;28.20;24.17;;;21.90;99.90;;;;;;5004981;28;20209;-69
2022/08/20 07:07:49;;;;;;;29.23;23.67;;;21.90;99.90;;;;;;5004089;28;20202;-69
2022/08/20 07:10:16;;;;;;;29.88;23.23;;;21.90;99.90;;;;;;5003102;28;20177;-69
2022/08/20 07:12:42;;;;;;;30.65;25.30;;;21.90;99.90;;;;;;5002240;28;20178;-69
2022/08/20 07:15:10;;;;;;;27.30;24.25;;;21.90;99.90;;;;;;5005291;28;20269;-69
2022/08/20 07:17:36;;;;;;;30.23;25.48;;;21.90;99.90;;;;;;5003102;28;20636;-69
2022/08/20 07:20:09;;;;;;;32.97;25.98;;;22.00;99.90;;;;;;5002489;28;20264;-69
2022/08/20 07:22:35;;;;;;;32.50;25.05;;;21.90;99.90;;;;;;5002101;28;20224;-69
2022/08/20 07:25:05;;;;;;;28.70;24.88;;;22.00;99.90;;;;;;5006029;28;20206;-68
2022/08/20 07:27:32;;;;;;;29.08;24.13;;;21.90;99.90;;;;;;5001615;28;20216;-69
2022/08/20 07:32:43;;;;;;;29.80;26.30;;;21.90;99.90;;;;;;5002543;28;20620;-69
2022/08/20 07:35:13;;;;;;;29.92;25.42;;;21.90;99.90;;;;;;5004142;28;20208;-69
2022/08/20 07:37:42;;;;;;;32.42;25.73;;;21.90;99.90;;;;;;5001527;28;20216;-69
2022/08/20 07:40:12;;;;;;;32.90;26.10;;;21.90;99.90;;;;;;5005023;28;20653;-69
2022/08/20 07:42:38;;;;;;;32.75;26.48;;;21.90;99.90;;;;;;5002256;28;20181;-69
2022/08/20 07:45:12;;;;;;;32.42;26.73;;;21.90;99.90;;;;;;5002435;28;20209;-69
2022/08/20 07:47:40;;;;;;;36.97;28.08;;;21.90;99.90;;;;;;5001391;28;20680;-69
2022/08/20 07:50:12;;;;;;;33.92;27.38;;;21.90;99.90;;;;;;4998379;28;20335;-68
2022/08/20 07:52:37;;;;;;;34.40;26.88;;;22.00;99.90;;;;;;5002958;28;20205;-69
2022/08/20 07:55:09;;;;;;;38.53;29.67;;;22.00;99.90;;;;;;5001488;28;20209;-69
2022/08/20 07:57:35;;;;;;;34.67;27.77;;;22.00;99.90;;;;;;5001781;28;20174;-69
2022/08/20 08:00:02;;;;;;;37.10;29.80;;;22.00;99.90;;;;;;5004462;28;20338;-68
2022/08/20 08:02:27;;;;;;;36.35;30.33;;;22.10;99.90;;;;;;5001164;28;20235;-69
2022/08/20 08:04:54;;;;;;;41.13;31.45;;;22.00;99.90;;;;;;5002258;28;20746;-69
2022/08/20 08:07:21;;;;;;;35.50;28.92;;;22.10;99.90;;;;;;5002602;28;20182;-69
2022/08/20 08:09:48;;;;;;;38.85;30.48;;;22.10;99.90;;;;;;5004227;28;20192;-69
2022/08/20 08:12:14;;;;;;;40.45;31.17;;;22.20;99.90;;;;;;4997281;28;20211;-69
2022/08/20 08:14:41;;;;;;;40.30;32.75;;;22.30;99.90;;;;;;5001970;28;20244;-68
2022/08/20 08:17:08;;;;;;;40.40;32.45;;;22.40;99.90;;;;;;5003630;28;20330;-68
2022/08/20 08:19:47;;;;;;;39.85;32.75;;;22.40;99.90;;;;;;5007154;28;20263;-69
2022/08/20 08:22:15;;;;;;;38.38;30.13;;;22.50;99.90;;;;;;5012601;28;20195;-70
2022/08/20 08:24:42;;;;;;;40.22;32.90;;;22.60;99.90;;;;;;5002215;28;20231;-68
2022/08/20 08:27:08;;;;;;;40.55;32.17;;;22.40;99.90;;;;;;5001390;28;20219;-68
2022/08/20 08:29:35;;;;;;;41.78;32.78;;;22.40;99.90;;;;;;5001395;28;20205;-69
2022/08/20 08:32:04;;;;;;;39.85;30.83;;;22.40;99.90;;;;;;5003783;28;20208;-69
2022/08/20 08:34:32;;;;;;;37.60;30.05;;;22.30;99.90;;;;;;4999048;28;20220;-69
2022/08/20 08:36:58;;;;;;;40.72;32.00;;;22.30;99.90;;;;;;5000325;28;20181;-68
2022/08/20 08:39:24;;;;;;;39.38;31.60;;;22.30;99.90;;;;;;5002197;28;20232;-69
2022/08/20 08:41:51;;;;;;;40.95;30.95;;;22.30;99.90;;;;;;5000017;28;20750;-69
2022/08/20 08:44:25;;;;;;;39.78;30.63;;;22.30;99.90;;;;;;5002939;28;20229;-69
2022/08/20 08:46:58;;;;;;;40.22;32.30;;;22.20;99.90;;;;;;5001093;28;20235;-69
2022/08/20 08:49:28;;;;;;;41.47;31.63;;;22.30;99.90;;;;;;5001213;28;20631;-69
2022/08/20 08:51:55;;;;;;;39.70;31.33;;;22.40;99.90;;;;;;5004159;28;20196;-69
2022/08/20 08:54:23;;;;;;;37.85;29.98;;;22.40;99.90;;;;;;4984399;28;20208;-69
2022/08/20 08:56:51;;;;;;;38.88;30.65;;;22.50;99.90;;;;;;5001538;28;20212;-69
2022/08/20 08:59:18;;;;;;;35.13;28.48;;;22.50;99.90;;;;;;5001377;28;20200;-69
2022/08/20 09:01:53;;;;;;;40.75;31.23;;;22.60;99.90;;;;;;5003216;28;20328;-68
2022/08/20 09:04:20;;;;;;;39.17;29.30;;;22.70;99.90;;;;;;4996468;28;20196;-69
2022/08/20 09:06:48;;;;;;;40.28;29.67;;;22.70;99.90;;;;;;4999264;28;20189;-69
2022/08/20 09:09:19;;;;;;;38.90;30.23;;;22.80;99.90;;;;;;5001525;28;20207;-69
2022/08/20 09:11:52;;;;;;;34.40;29.90;;;22.90;99.90;;;;;;5005942;28;20289;-69
2022/08/20 09:14:18;;;;;;;38.38;30.67;;;22.80;99.90;;;;;;5013460;28;20227;-69
2022/08/20 09:16:43;;;;;;;33.80;27.88;;;22.80;99.90;;;;;;5010449;28;20197;-69
2022/08/20 09:19:09;;;;;;;38.97;30.65;;;22.80;99.90;;;;;;5001919;28;20259;-69
2022/08/20 09:21:35;;;;;;;40.85;30.65;;;22.70;99.90;;;;;;5001906;28;20253;-68
2022/08/20 09:24:01;;;;;;;33.83;28.52;;;22.60;99.90;;;;;;5003005;28;20678;-68
2022/08/20 09:26:26;;;;;;;40.63;32.13;;;22.70;99.90;;;;;;4999598;28;20264;-69
2022/08/20 09:28:52;;;;;;;35.63;28.27;;;22.70;99.90;;;;;;4999589;28;20570;-68
2022/08/20 09:31:17;;;;;;;35.53;26.55;;;22.70;99.90;;;;;;5002346;28;20185;-68
2022/08/20 09:33:43;;;;;;;32.78;25.92;;;22.80;99.90;;;;;;5001519;28;20269;-70
2022/08/20 09:36:08;;;;;;;29.17;25.00;;;22.90;99.90;;;;;;5001176;28;20213;-68
2022/08/20 09:38:34;;;;;;;29.52;25.40;;;23.00;99.90;;;;;;4999049;28;20660;-68
2022/08/20 09:41:00;;;;;;;29.38;24.92;;;23.20;99.90;;;;;;5002551;28;20327;-68
2022/08/20 09:43:25;;;;;;;29.70;23.60;;;23.20;99.90;;;;;;4999217;28;20296;-69
2022/08/20 09:45:51;;;;;;;29.70;25.17;;;23.30;99.90;;;;;;5000406;28;20202;-68
2022/08/20 09:48:16;;;;;;;29.67;24.10;;;23.30;99.90;;;;;;5000593;28;20201;-68
2022/08/20 09:50:46;;;;;;;28.65;24.40;;;23.50;99.90;;;;;;5000655;28;20692;-68
2022/08/20 09:53:12;;;;;;;27.73;22.23;;;23.40;99.90;;;;;;5000453;28;20213;-69
2022/08/20 09:55:41;;;;;;;28.77;24.83;;;23.50;99.90;;;;;;4999272;28;20225;-68
2022/08/20 09:58:09;;;;;;;28.65;23.23;;;23.60;99.90;;;;;;5002742;28;20177;-68
2022/08/20 10:00:35;;;;;;;25.90;20.60;;;23.60;99.90;;;;;;5000884;28;20578;-69
2022/08/20 10:03:02;;;;;;;22.88;20.40;;;23.70;99.90;;;;;;4999868;28;20297;-68
2022/08/20 10:05:27;;;;;;;23.48;19.65;;;23.80;99.90;;;;;;5000409;28;20215;-68
2022/08/20 10:07:53;;;;;;;25.10;21.38;;;23.90;99.90;;;;;;5000532;28;20288;-68
2022/08/20 10:10:19;;;;;;;25.77;19.77;;;24.00;99.90;;;;;;4999994;28;20232;-68
2022/08/20 10:12:45;;;;;;;24.20;20.67;;;24.00;99.90;;;;;;4996155;28;20166;-68
2022/08/20 10:15:11;;;;;;;22.70;18.50;;;24.10;99.90;;;;;;5001966;28;20224;-68
2022/08/20 10:17:41;;;;;;;19.42;17.30;;;24.20;99.90;;;;;;5002969;28;20744;-68
2022/08/20 10:20:09;;;;;;;19.27;16.13;;;24.30;99.90;;;;;;4999076;28;20217;-68
2022/08/20 10:22:36;;;;;;;18.15;16.20;;;24.30;99.90;;;;;;4999032;28;20237;-68
2022/08/20 10:25:02;;;;;;;17.77;15.95;;;24.30;99.90;;;;;;5002817;28;20201;-68
2022/08/20 10:27:28;;;;;;;18.30;16.38;;;24.40;99.90;;;;;;4999619;28;20662;-68
2022/08/20 10:29:53;;;;;;;17.33;15.32;;;24.40;99.90;;;;;;4999256;28;20210;-68
2022/08/20 10:32:19;;;;;;;20.15;16.02;;;24.40;99.90;;;;;;5001086;28;20677;-69
2022/08/20 10:34:45;;;;;;;19.70;16.77;;;24.40;99.90;;;;;;5000886;28;20284;-68
2022/08/20 10:37:15;;;;;;;20.13;17.17;;;24.40;99.90;;;;;;4999352;28;20204;-69
2022/08/20 10:39:41;;;;;;;22.40;18.50;;;24.50;99.90;;;;;;4998581;28;20268;-69
2022/08/20 10:42:07;;;;;;;20.58;17.83;;;24.60;99.90;;;;;;5000334;28;20605;-70
2022/08/20 10:44:33;;;;;;;20.35;16.08;;;24.60;99.90;;;;;;5005654;28;20231;-69
2022/08/20 10:47:19;;;;;;;17.00;14.05;;;24.80;99.90;;;;;;4999500;28;20197;-69
2022/08/20 10:49:45;;;;;;;14.48;12.90;;;24.90;99.90;;;;;;4999521;28;20202;-69
2022/08/20 10:52:11;;;;;;;14.70;12.73;;;24.90;99.90;;;;;;5000501;28;20672;-69
2022/08/20 10:54:40;;;;;;;14.57;12.82;;;25.00;99.90;;;;;;4998809;28;20588;-67
2022/08/20 10:57:07;;;;;;;15.57;13.57;;;24.90;99.90;;;;;;5002240;28;20641;-69
2022/08/20 10:59:37;;;;;;;13.15;11.27;;;24.90;99.90;;;;;;4996772;28;20229;-70
2022/08/20 11:02:03;;;;;;;12.82;11.43;;;24.90;99.90;;;;;;4999482;28;20557;-69
2022/08/20 11:04:28;;;;;;;11.45;10.25;;;24.70;99.90;;;;;;4998244;28;20205;-68
2022/08/20 11:06:54;;;;;;;13.40;11.40;;;24.80;99.90;;;;;;5001616;28;20239;-68
2022/08/20 11:09:19;;;;;;;13.65;11.25;;;24.80;99.90;;;;;;4998313;28;20351;-69
2022/08/20 11:11:45;;;;;;;12.77;10.65;;;24.70;99.90;;;;;;4998009;28;20197;-69
2022/08/20 11:14:10;;;;;;;11.05;9.93;;;24.60;99.90;;;;;;4995150;28;20221;-69
2022/08/20 11:16:36;;;;;;;10.48;9.38;;;24.30;99.90;;;;;;5002769;28;20594;-69
2022/08/20 11:19:01;;;;;;;12.52;10.10;;;24.30;99.90;;;;;;5001058;28;20568;-70
2022/08/20 11:21:27;;;;;;;11.95;9.98;;;24.20;99.90;;;;;;4998303;28;20267;-69
2022/08/20 11:23:52;;;;;;;10.40;8.82;;;24.30;99.90;;;;;;4999732;28;20313;-68
2022/08/20 11:26:22;;;;;;;11.02;9.30;;;24.10;99.90;;;;;;5002866;28;20304;-68
2022/08/20 11:28:48;;;;;;;9.15;8.25;;;24.10;99.90;;;;;;5001904;28;20202;-69
2022/08/20 11:31:13;;;;;;;9.60;8.60;;;24.20;99.90;;;;;;5005199;28;20581;-70
2022/08/20 11:33:39;;;;;;;9.45;8.45;;;24.30;99.90;;;;;;5003092;28;20201;-68
2022/08/20 11:36:05;;;;;;;9.93;8.10;;;24.20;99.90;;;;;;5003988;28;20331;-68
2022/08/20 11:38:30;;;;;;;9.70;7.93;;;24.30;99.90;;;;;;5001145;28;20678;-70
2022/08/20 11:40:56;;;;;;;8.60;7.78;;;24.40;99.90;;;;;;5004459;28;20201;-69
2022/08/20 11:43:21;;;;;;;8.20;7.40;;;24.30;99.90;;;;;;5001195;28;20213;-68
2022/08/20 11:45:51;;;;;;;8.77;7.53;;;24.30;99.90;;;;;;5002000;28;20651;-69
2022/08/20 11:48:17;;;;;;;8.07;7.28;;;24.10;99.90;;;;;;5004414;28;20672;-69
2022/08/20 11:50:43;;;;;;;7.60;6.80;;;24.00;99.90;;;;;;5002997;28;20292;-69
2022/08/20 11:53:08;;;;;;;7.75;6.95;;;24.00;99.90;;;;;;5001781;28;20291;-69
2022/08/20 11:55:35;;;;;;;7.03;6.32;;;24.00;99.90;;;;;;5001974;28;20545;-69
2022/08/20 11:58:00;;;;;;;8.30;6.90;;;24.00;99.90;;;;;;5005170;28;20185;-69
2022/08/20 12:00:27;;;;;;;8.32;7.45;;;24.00;99.90;;;;;;5000945;28;20202;-69
2022/08/20 12:02:53;;;;;;;7.05;5.90;;;24.00;99.90;;;;;;5001716;28;20705;-69
2022/08/20 12:05:19;;;;;;;6.32;5.72;;;24.00;99.90;;;;;;5002199;28;20213;-69
2022/08/20 12:07:45;;;;;;;6.20;5.60;;;24.00;99.90;;;;;;5002555;28;20246;-69
2022/08/20 12:10:11;;;;;;;8.27;6.47;;;24.00;99.90;;;;;;5002473;28;20192;-69
2022/08/20 12:12:40;;;;;;;7.88;6.50;;;24.00;99.90;;;;;;4998165;28;20181;-69
2022/08/20 12:15:07;;;;;;;7.28;6.57;;;24.00;99.90;;;;;;5002881;28;20221;-70
2022/08/20 12:17:34;;;;;;;9.05;6.68;;;24.10;99.90;;;;;;5001699;28;20213;-69
2022/08/20 12:20:02;;;;;;;6.97;6.13;;;24.10;99.90;;;;;;5001055;28;20217;-69
2022/08/20 12:22:27;;;;;;;6.88;6.22;;;24.10;99.90;;;;;;5002040;28;20209;-69
2022/08/20 12:24:54;;;;;;;6.22;5.63;;;24.00;99.90;;;;;;5004135;28;20658;-69
2022/08/20 12:27:26;;;;;;;6.55;5.72;;;23.90;99.90;;;;;;5001204;28;20209;-69
2022/08/20 12:29:54;;;;;;;7.07;6.03;;;23.80;99.90;;;;;;5004350;28;20285;-69
2022/08/20 12:32:22;;;;;;;8.60;7.28;;;23.80;99.90;;;;;;5003080;28;20205;-69
2022/08/20 12:34:48;;;;;;;6.50;5.90;;;23.80;99.90;;;;;;5003870;28;20205;-69